createdAt,value
2023-02-03T00:00:36.168Z,7.42
2023-02-03T00:03:05.060Z,7.32
2023-02-03T00:05:37.016Z,7.31
2023-02-03T00:08:06.716Z,7.39
2023-02-03T00:10:36.479Z,7.46
2023-02-03T00:13:07.285Z,7.41
2023-02-03T00:15:36.061Z,7.44
2023-02-03T00:18:04.696Z,7.39
2023-02-03T00:20:33.977Z,7.38
2023-02-03T00:23:06.299Z,7.39
2023-02-03T00:25:34.955Z,7.44
2023-02-03T00:28:04.007Z,7.50
2023-02-03T00:30:35.770Z,7.46
2023-02-03T00:33:04.676Z,7.46
2023-02-03T00:35:33.163Z,7.48
2023-02-03T00:38:01.766Z,7.51
2023-02-03T00:40:30.848Z,7.48
2023-02-03T00:42:59.350Z,7.55
2023-02-03T00:45:27.962Z,7.52
2023-02-03T00:47:57.854Z,7.51
2023-02-03T00:50:27.426Z,7.57
2023-02-03T00:52:56.005Z,7.60
2023-02-03T00:55:24.493Z,7.56
2023-02-03T00:57:53.057Z,7.58
2023-02-03T01:00:22.440Z,7.56
2023-02-03T01:02:50.855Z,7.63
2023-02-03T01:05:20.658Z,7.66
2023-02-03T01:07:49.077Z,7.64
2023-02-03T01:10:18.181Z,7.75
2023-02-03T01:12:46.803Z,7.68
2023-02-03T01:15:15.224Z,7.70
2023-02-03T01:17:43.671Z,7.78
2023-02-03T01:20:13.943Z,7.78
2023-02-03T01:22:43.920Z,7.76
2023-02-03T01:25:12.579Z,7.81
2023-02-03T01:27:41.124Z,7.93
2023-02-03T01:30:10.924Z,7.89
2023-02-03T01:32:39.488Z,7.88
2023-02-03T01:35:09.733Z,7.88
2023-02-03T01:37:38.274Z,7.88
2023-02-03T01:40:10.005Z,7.84
2023-02-03T01:42:38.560Z,7.84
2023-02-03T01:45:07.931Z,7.85
2023-02-03T01:47:44.775Z,7.80
2023-02-03T01:50:17.605Z,7.89
2023-02-03T01:52:50.501Z,7.77
2023-02-03T01:55:23.752Z,7.84
2023-02-03T01:57:55.592Z,7.84
2023-02-03T02:00:24.983Z,7.84
2023-02-03T02:02:54.744Z,7.78
2023-02-03T02:05:29.008Z,7.82
2023-02-03T02:07:59.449Z,7.86
2023-02-03T02:10:30.785Z,7.75
2023-02-03T02:13:01.484Z,7.72
2023-02-03T02:15:36.691Z,7.85
2023-02-03T02:18:20.315Z,7.83
2023-02-03T02:21:14.437Z,7.85
2023-02-03T02:24:10.330Z,7.84
2023-02-03T02:26:55.697Z,7.82
2023-02-03T02:29:45.186Z,7.85
2023-02-03T02:32:22.764Z,7.85
2023-02-03T02:35:03.848Z,7.92
2023-02-03T02:37:45.453Z,7.84
2023-02-03T02:40:25.295Z,7.81
2023-02-03T02:43:03.978Z,7.81
2023-02-03T02:45:38.828Z,7.78
2023-02-03T02:48:16.479Z,7.80
2023-02-03T02:50:49.370Z,7.82
2023-02-03T02:53:21.351Z,7.76
2023-02-03T02:55:50.310Z,7.73
2023-02-03T02:58:21.203Z,7.74
2023-02-03T03:00:49.950Z,7.70
2023-02-03T03:03:25.185Z,7.78
2023-02-03T03:05:57.317Z,7.80
2023-02-03T03:08:34.194Z,7.77
2023-02-03T03:11:03.803Z,7.85
2023-02-03T03:13:39.317Z,7.88
2023-02-03T03:16:10.515Z,7.86
2023-02-03T03:18:44.448Z,7.86
2023-02-03T03:21:17.336Z,7.84
2023-02-03T03:23:49.503Z,7.82
2023-02-03T03:26:27.840Z,7.85
2023-02-03T03:29:05.009Z,7.82
2023-02-03T03:31:33.913Z,7.83
2023-02-03T03:34:04.091Z,7.85
2023-02-03T03:36:39.225Z,7.84
2023-02-03T03:39:16.754Z,7.82
2023-02-03T03:41:57.451Z,7.84
2023-02-03T03:44:31.267Z,7.89
2023-02-03T03:47:07.978Z,7.82
2023-02-03T03:49:42.225Z,7.84
2023-02-03T03:52:15.789Z,7.86
2023-02-03T03:54:47.075Z,7.83
2023-02-03T03:57:20.304Z,7.87
2023-02-03T03:59:51.749Z,7.86
2023-02-03T04:02:22.252Z,7.88
2023-02-03T04:04:52.897Z,7.84
2023-02-03T04:07:21.305Z,7.84
2023-02-03T04:09:51.043Z,7.82
2023-02-03T04:12:24.560Z,7.89
2023-02-03T04:14:53.184Z,7.83
2023-02-03T04:17:21.869Z,7.81
2023-02-03T04:19:51.793Z,7.88
2023-02-03T04:22:20.315Z,7.84
2023-02-03T04:24:48.709Z,7.78
2023-02-03T04:27:17.332Z,7.78
2023-02-03T04:29:47.646Z,7.88
2023-02-03T04:32:16.030Z,7.91
2023-02-03T04:34:44.501Z,7.85
2023-02-03T04:37:14.559Z,7.88
2023-02-03T04:39:43.187Z,7.93
2023-02-03T04:42:11.621Z,7.89
2023-02-03T04:44:40.312Z,7.91
2023-02-03T04:47:08.764Z,7.87
2023-02-03T04:49:37.163Z,7.89
2023-02-03T04:52:07.302Z,7.87
2023-02-03T04:54:37.591Z,7.84
2023-02-03T04:57:06.451Z,7.88
2023-02-03T04:59:35.102Z,7.88
2023-02-03T05:02:04.434Z,7.85
2023-02-03T05:04:33.351Z,7.97
2023-02-03T05:07:01.935Z,7.95
2023-02-03T05:09:30.526Z,7.88
2023-02-03T05:12:00.381Z,7.86
2023-02-03T05:14:28.810Z,7.91
2023-02-03T05:16:57.463Z,7.88
2023-02-03T05:19:25.959Z,7.94
2023-02-03T05:21:54.691Z,7.91
2023-02-03T05:24:23.141Z,7.91
2023-02-03T05:26:52.004Z,7.88
2023-02-03T05:29:21.788Z,7.86
2023-02-03T05:31:50.981Z,7.84
2023-02-03T05:34:19.809Z,7.85
2023-02-03T05:36:49.046Z,7.93
2023-02-03T05:39:17.719Z,7.88
2023-02-03T05:41:55.899Z,7.85
2023-02-03T05:44:29.157Z,7.90
2023-02-03T05:46:59.931Z,7.88
2023-02-03T05:49:28.372Z,7.96
2023-02-03T05:51:57.141Z,7.89
2023-02-03T05:54:25.604Z,7.91
2023-02-03T05:56:54.440Z,8.01
2023-02-03T05:59:23.226Z,7.96
2023-02-03T06:01:53.118Z,7.95
2023-02-03T06:04:21.670Z,7.94
2023-02-03T06:06:50.118Z,7.95
2023-02-03T06:09:18.566Z,7.95
2023-02-03T06:11:47.166Z,7.96
2023-02-03T06:14:15.569Z,8.03
2023-02-03T06:16:44.060Z,7.94
2023-02-03T06:19:16.187Z,7.96
2023-02-03T06:21:45.038Z,7.96
2023-02-03T06:24:13.738Z,7.99
2023-02-03T06:26:42.134Z,7.93
2023-02-03T06:29:10.664Z,8.03
2023-02-03T06:31:39.179Z,7.93
2023-02-03T06:34:07.893Z,7.96
2023-02-03T06:36:37.830Z,7.94
2023-02-03T06:39:06.639Z,7.92
2023-02-03T06:41:35.250Z,7.96
2023-02-03T06:44:04.068Z,8.00
2023-02-03T06:46:33.879Z,7.99
2023-02-03T06:49:02.739Z,7.99
2023-02-03T06:51:31.486Z,8.03
2023-02-03T06:54:02.874Z,7.92
2023-02-03T06:56:32.347Z,8.01
2023-02-03T06:59:01.565Z,8.01
2023-02-03T07:01:30.944Z,8.05
2023-02-03T07:03:59.938Z,8.04
2023-02-03T07:06:32.279Z,8.06
2023-02-03T07:09:04.834Z,8.06
2023-02-03T07:11:33.884Z,7.97
2023-02-03T07:14:02.455Z,7.93
2023-02-03T07:16:34.136Z,8.02
2023-02-03T07:19:02.694Z,8.01
2023-02-03T07:21:31.266Z,7.99
2023-02-03T07:24:00.201Z,8.04
2023-02-03T07:26:31.043Z,8.11
2023-02-03T07:29:00.884Z,8.08
2023-02-03T07:31:29.547Z,8.10
2023-02-03T07:33:58.459Z,8.08
2023-02-03T07:36:28.037Z,8.09
2023-02-03T07:38:56.563Z,8.14
2023-02-03T07:41:25.840Z,8.06
2023-02-03T07:43:55.657Z,8.13
2023-02-03T07:46:24.221Z,8.10
2023-02-03T07:48:52.701Z,8.20
2023-02-03T07:51:21.333Z,8.16
2023-02-03T07:53:50.148Z,8.12
2023-02-03T07:56:18.842Z,8.11
2023-02-03T07:58:47.379Z,8.17
2023-02-03T08:01:17.934Z,8.26
2023-02-03T08:03:46.403Z,8.22
2023-02-03T08:06:15.237Z,8.18
2023-02-03T08:08:43.942Z,8.17
2023-02-03T08:11:12.621Z,8.24
2023-02-03T08:13:41.161Z,8.25
2023-02-03T08:16:09.869Z,8.23
2023-02-03T08:18:39.845Z,8.23
2023-02-03T08:21:08.276Z,8.24
2023-02-03T08:23:36.887Z,8.27
2023-02-03T08:26:06.009Z,8.31
2023-02-03T08:28:34.545Z,8.39
2023-02-03T08:31:03.155Z,8.39
2023-02-03T08:33:32.607Z,8.36
2023-02-03T08:36:05.797Z,8.36
2023-02-03T08:38:34.561Z,8.41
2023-02-03T08:41:03.031Z,8.41
2023-02-03T08:43:31.500Z,8.46
2023-02-03T08:46:04.366Z,8.54
2023-02-03T08:48:33.093Z,8.46
2023-02-03T08:51:03.241Z,8.58
2023-02-03T08:53:31.936Z,8.55
2023-02-03T08:56:00.357Z,8.52
2023-02-03T08:58:28.995Z,8.59
2023-02-03T09:01:07.686Z,8.59
2023-02-03T09:03:36.571Z,8.59
2023-02-03T09:06:09.228Z,8.60
2023-02-03T09:08:37.900Z,8.65
2023-02-03T09:11:10.577Z,8.71
2023-02-03T09:13:39.413Z,8.63
2023-02-03T09:16:08.739Z,8.67
2023-02-03T09:18:37.316Z,8.61
2023-02-03T09:21:09.207Z,8.67
2023-02-03T09:23:38.452Z,8.63
2023-02-03T09:26:08.893Z,8.64
2023-02-03T09:28:37.899Z,8.70
2023-02-03T09:31:07.996Z,8.70
2023-02-03T09:33:37.248Z,8.63
2023-02-03T09:36:08.625Z,8.67
2023-02-03T09:38:37.236Z,8.64
2023-02-03T09:41:19.483Z,8.69
2023-02-03T09:43:54.493Z,8.59
2023-02-03T09:46:26.233Z,8.66
2023-02-03T09:48:59.066Z,8.65
2023-02-03T09:51:32.852Z,8.78
2023-02-03T09:54:07.057Z,8.88
2023-02-03T09:56:37.742Z,8.80
2023-02-03T09:59:07.396Z,8.83
2023-02-03T10:01:45.024Z,8.89
2023-02-03T10:04:27.831Z,8.73
2023-02-03T10:07:07.952Z,8.83
2023-02-03T10:09:50.173Z,8.79
2023-02-03T10:12:57.894Z,8.82
2023-02-03T10:15:44.925Z,8.88
2023-02-03T10:18:16.676Z,8.83
2023-02-03T10:20:48.803Z,8.86
2023-02-03T10:23:23.509Z,8.93
2023-02-03T10:25:57.346Z,8.77
2023-02-03T10:28:38.910Z,8.75
2023-02-03T10:31:16.845Z,8.76
2023-02-03T10:33:46.107Z,8.83
2023-02-03T10:36:21.059Z,8.81
2023-02-03T10:39:02.147Z,8.77
2023-02-03T10:41:32.355Z,8.80
2023-02-03T10:44:05.100Z,8.87
2023-02-03T10:46:37.054Z,8.87
2023-02-03T10:49:06.178Z,8.89
2023-02-03T10:51:39.658Z,8.76
2023-02-03T10:54:28.198Z,8.83
2023-02-03T10:57:07.190Z,8.88
2023-02-03T10:59:38.078Z,8.88
2023-02-03T11:02:11.938Z,8.93
2023-02-03T11:04:40.709Z,8.86
2023-02-03T11:07:25.432Z,8.85
2023-02-03T11:09:55.652Z,8.91
2023-02-03T11:12:24.056Z,8.97
2023-02-03T11:14:54.422Z,8.84
2023-02-03T11:17:32.962Z,8.86
2023-02-03T11:20:13.992Z,8.98
2023-02-03T11:22:44.247Z,8.99
2023-02-03T11:25:29.721Z,8.84
2023-02-03T11:28:06.890Z,8.87
2023-02-03T11:30:35.676Z,8.84
2023-02-03T11:33:04.810Z,8.79
2023-02-03T11:35:34.229Z,8.82
2023-02-03T11:38:03.130Z,8.78
2023-02-03T11:40:38.385Z,8.74
2023-02-03T11:43:16.712Z,8.73
2023-02-03T11:45:51.387Z,8.77
2023-02-03T11:48:28.745Z,8.81
2023-02-03T11:51:12.346Z,8.88
2023-02-03T11:54:22.052Z,8.88
2023-02-03T11:57:13.357Z,8.90
2023-02-03T11:59:53.139Z,9.01
2023-02-03T12:02:44.903Z,8.99
2023-02-03T12:05:29.607Z,8.94
2023-02-03T12:08:10.830Z,9.01
2023-02-03T12:10:49.936Z,9.04
2023-02-03T12:13:38.021Z,8.95
2023-02-03T12:16:23.942Z,9.02
2023-02-03T12:19:06.279Z,9.04
2023-02-03T12:21:45.387Z,9.17
2023-02-03T12:24:30.303Z,9.08
2023-02-03T12:27:13.125Z,9.16
2023-02-03T12:29:46.607Z,9.28
2023-02-03T12:32:24.935Z,9.13
2023-02-03T12:34:58.138Z,9.26
2023-02-03T12:37:30.095Z,9.32
2023-02-03T12:40:02.762Z,9.49
2023-02-03T12:42:38.351Z,9.56
2023-02-03T12:45:14.778Z,9.54
2023-02-03T12:47:46.787Z,9.37
2023-02-03T12:50:21.709Z,9.53
2023-02-03T12:52:56.830Z,9.44
2023-02-03T12:55:35.799Z,9.37
2023-02-03T12:58:07.224Z,9.47
2023-02-03T13:00:43.919Z,9.41
2023-02-03T13:03:19.133Z,9.43
2023-02-03T13:05:55.234Z,9.32
2023-02-03T13:08:30.427Z,9.22
2023-02-03T13:11:12.942Z,9.17
2023-02-03T13:13:49.248Z,9.22
2023-02-03T13:16:23.106Z,9.21
2023-02-03T13:18:57.648Z,8.86
2023-02-03T13:21:26.413Z,8.54
2023-02-03T13:23:55.064Z,8.31
2023-02-03T13:27:02.935Z,8.21
2023-02-03T13:29:50.507Z,7.99
2023-02-03T13:32:36.618Z,7.99
2023-02-03T13:35:32.170Z,7.93
2023-02-03T13:38:22.307Z,7.80
2023-02-03T13:40:59.549Z,7.85
2023-02-03T13:43:38.553Z,7.76
2023-02-03T13:46:18.687Z,7.77
2023-02-03T13:48:49.080Z,7.82
2023-02-03T13:51:21.509Z,7.81
2023-02-03T13:53:53.505Z,7.80
2023-02-03T13:56:24.254Z,7.78
2023-02-03T13:59:06.078Z,7.78
2023-02-03T14:01:38.511Z,7.82
2023-02-03T14:04:10.577Z,7.82
2023-02-03T14:06:58.989Z,7.81
2023-02-03T14:09:41.157Z,7.91
2023-02-03T14:12:37.044Z,8.00
2023-02-03T14:15:22.805Z,8.07
2023-02-03T14:18:07.871Z,8.07
2023-02-03T14:20:44.218Z,8.05
2023-02-03T14:23:35.367Z,8.07
2023-02-03T14:26:04.594Z,8.17
2023-02-03T14:28:41.291Z,8.17
2023-02-03T14:31:25.542Z,8.14
2023-02-03T14:34:05.762Z,8.07
2023-02-03T14:36:46.763Z,8.08
2023-02-03T14:39:55.292Z,8.09
2023-02-03T14:42:40.910Z,7.99
2023-02-03T14:45:24.188Z,8.07
2023-02-03T14:48:07.797Z,8.01
2023-02-03T14:50:53.016Z,8.08
2023-02-03T14:53:52.027Z,8.14
2023-02-03T14:56:54.577Z,8.17
2023-02-03T14:59:27.572Z,8.11
2023-02-03T15:02:39.700Z,8.13
2023-02-03T15:05:39.304Z,8.13
2023-02-03T15:08:43.160Z,8.13
2023-02-03T15:11:33.364Z,8.11
2023-02-03T15:14:22.979Z,8.14
2023-02-03T15:17:02.053Z,8.09
2023-02-03T15:19:35.057Z,8.03
2023-02-03T15:22:19.425Z,7.98
2023-02-03T15:25:03.285Z,8.03
2023-02-03T15:27:34.760Z,8.01
2023-02-03T15:30:16.908Z,7.99
2023-02-03T15:32:50.278Z,8.10
2023-02-03T15:35:21.020Z,8.11
2023-02-03T15:37:54.829Z,8.07
2023-02-03T15:40:24.748Z,8.03
2023-02-03T15:43:03.066Z,8.17
2023-02-03T15:45:35.747Z,8.23
2023-02-03T15:48:09.491Z,8.08
2023-02-03T15:50:43.788Z,8.12
2023-02-03T15:53:20.187Z,8.09
2023-02-03T15:55:51.568Z,8.11
2023-02-03T15:58:24.672Z,8.07
2023-02-03T16:00:56.029Z,8.16
2023-02-03T16:03:34.586Z,8.05
2023-02-03T16:06:09.586Z,8.10
2023-02-03T16:08:43.326Z,8.01
2023-02-03T16:11:30.133Z,7.92
2023-02-03T16:14:02.218Z,7.93
2023-02-03T16:16:36.194Z,7.86
2023-02-03T16:19:07.794Z,7.84
2023-02-03T16:21:38.128Z,7.81
2023-02-03T16:24:07.412Z,7.77
2023-02-03T16:26:38.417Z,7.75
2023-02-03T16:29:33.571Z,7.79
2023-02-03T16:32:19.794Z,7.83
2023-02-03T16:35:06.063Z,7.76
2023-02-03T16:38:01.360Z,7.87
2023-02-03T16:40:47.991Z,7.83
2023-02-03T16:43:35.197Z,7.81
2023-02-03T16:46:30.045Z,7.75
2023-02-03T16:49:16.138Z,7.74
2023-02-03T16:51:45.099Z,7.61
2023-02-03T16:54:15.219Z,7.66
2023-02-03T16:56:43.922Z,7.63
2023-02-03T16:59:12.501Z,7.55
2023-02-03T17:01:42.297Z,7.63
2023-02-03T17:04:11.867Z,7.63
2023-02-03T17:06:40.873Z,7.57
2023-02-03T17:09:09.475Z,7.58
2023-02-03T17:11:37.992Z,7.52
2023-02-03T17:14:06.453Z,7.47
2023-02-03T17:16:35.115Z,7.48
2023-02-03T17:19:05.054Z,7.43
2023-02-03T17:21:33.462Z,7.41
2023-02-03T17:24:02.019Z,7.40
2023-02-03T17:26:30.606Z,7.42
2023-02-03T17:29:03.239Z,7.38
2023-02-03T17:31:33.102Z,7.44
2023-02-03T17:34:01.577Z,7.48
2023-02-03T17:36:31.451Z,7.46
2023-02-03T17:55:33.541Z,7.41
2023-02-03T17:58:02.360Z,7.49
2023-02-03T18:00:31.026Z,7.38
2023-02-03T18:02:59.745Z,7.41
2023-02-03T18:05:28.868Z,7.34
2023-02-03T18:08:03.122Z,7.36
2023-02-03T18:10:37.953Z,7.42
2023-02-03T18:13:06.391Z,7.39
2023-02-03T18:15:37.715Z,7.55
2023-02-03T18:18:06.423Z,7.41
2023-02-03T18:20:35.039Z,7.28
2023-02-03T18:23:04.935Z,7.29
2023-02-03T18:25:36.219Z,7.16
2023-02-03T18:28:05.271Z,7.16
2023-02-03T18:30:33.976Z,7.24
2023-02-03T18:33:03.724Z,7.18
2023-02-03T18:35:34.037Z,7.05
2023-02-03T18:38:02.510Z,7.01
2023-02-03T18:40:32.958Z,6.96
2023-02-03T18:43:02.279Z,6.88
2023-02-03T18:45:34.331Z,6.97
2023-02-03T18:48:02.996Z,7.02
2023-02-03T18:50:32.120Z,6.96
2023-02-03T18:53:01.729Z,6.86
2023-02-03T18:55:30.288Z,6.90
2023-02-03T18:58:00.327Z,6.80
2023-02-03T19:00:29.442Z,6.71
2023-02-03T19:02:58.141Z,6.71
2023-02-03T19:05:26.672Z,6.71
2023-02-03T19:07:55.166Z,6.65
2023-02-03T19:10:23.624Z,6.71
2023-02-03T19:12:52.518Z,6.77
2023-02-03T19:15:22.384Z,6.71
2023-02-03T19:17:50.864Z,6.79
2023-02-03T19:20:19.839Z,6.77
2023-02-03T19:22:48.448Z,6.82
2023-02-03T19:25:17.565Z,6.87
2023-02-03T19:27:46.117Z,6.86
2023-02-03T19:30:14.870Z,6.78
2023-02-03T19:32:44.822Z,6.83
2023-02-03T19:35:15.349Z,6.78
2023-02-03T19:37:43.970Z,6.73
2023-02-03T19:40:16.009Z,6.69
2023-02-03T19:42:44.692Z,6.68
2023-02-03T19:45:13.400Z,6.72
2023-02-03T19:47:41.906Z,6.79
2023-02-03T19:50:12.981Z,6.70
2023-02-03T19:52:41.684Z,6.76
2023-02-03T19:55:10.194Z,6.78
2023-02-03T19:57:38.713Z,6.75
2023-02-03T20:00:08.451Z,6.75
2023-02-03T20:02:38.653Z,6.84
2023-02-03T20:05:07.990Z,6.79
2023-02-03T20:07:38.258Z,6.72
2023-02-03T20:10:07.346Z,6.75
2023-02-03T20:12:35.961Z,6.80
2023-02-03T20:15:04.901Z,6.77
2023-02-03T20:17:33.685Z,6.75
2023-02-03T20:20:02.122Z,6.73
2023-02-03T20:22:30.628Z,6.74
2023-02-03T20:25:00.727Z,6.61
2023-02-03T20:27:29.169Z,6.66
2023-02-03T20:29:57.777Z,6.69
2023-02-03T20:32:26.247Z,6.78
2023-02-03T20:34:54.708Z,6.83
2023-02-03T20:37:23.385Z,6.75
2023-02-03T20:39:51.860Z,6.82
2023-02-03T20:42:21.957Z,6.74
2023-02-03T20:44:50.662Z,6.76
2023-02-03T20:47:21.295Z,6.71
2023-02-03T20:49:50.713Z,6.67
2023-02-03T20:52:21.776Z,6.70
2023-02-03T20:54:50.456Z,6.75
2023-02-03T20:57:20.385Z,6.83
2023-02-03T20:59:50.253Z,6.77
2023-02-03T21:02:22.874Z,6.78
2023-02-03T21:04:59.860Z,6.70
2023-02-03T21:07:30.800Z,6.73
2023-02-03T21:10:00.651Z,6.73
2023-02-03T21:12:29.566Z,6.78
2023-02-03T21:14:59.434Z,6.80
2023-02-03T21:17:28.599Z,6.68
2023-02-03T21:19:57.312Z,6.70
2023-02-03T21:22:30.220Z,6.73
2023-02-03T21:25:00.532Z,6.65
2023-02-03T21:27:30.803Z,6.74
2023-02-03T21:30:02.513Z,6.74
2023-02-03T21:32:37.869Z,6.77
2023-02-03T21:35:24.086Z,6.74
2023-02-03T21:37:57.022Z,6.79
2023-02-03T21:40:28.217Z,6.77
2023-02-03T21:42:57.888Z,6.81
2023-02-03T21:45:36.647Z,6.76
2023-02-03T21:48:27.133Z,6.75
2023-02-03T21:50:56.937Z,6.76
2023-02-03T21:53:28.584Z,6.78
2023-02-03T21:55:57.246Z,6.80
2023-02-03T21:58:28.979Z,6.82
2023-02-03T22:01:00.554Z,6.83
2023-02-03T22:03:31.136Z,6.78
2023-02-03T22:06:16.834Z,6.74
2023-02-03T22:08:46.996Z,6.74
2023-02-03T22:11:16.734Z,6.64
2023-02-03T22:13:45.579Z,6.61
2023-02-03T22:16:17.169Z,6.59
2023-02-03T22:18:46.606Z,6.47
2023-02-03T22:21:16.004Z,6.42
2023-02-03T22:23:45.194Z,6.39
2023-02-03T22:26:14.339Z,6.52
2023-02-03T22:28:43.506Z,6.46
2023-02-03T22:31:13.617Z,6.48
2023-02-03T22:33:44.162Z,6.57
2023-02-03T22:36:14.452Z,6.57
2023-02-03T22:38:43.804Z,6.41
2023-02-03T22:41:13.041Z,6.41
2023-02-03T22:43:41.897Z,6.43
2023-02-03T22:46:10.349Z,6.42
2023-02-03T22:48:38.835Z,6.43
2023-02-03T22:51:08.955Z,6.37
2023-02-03T22:53:39.483Z,6.38
2023-02-03T22:56:08.322Z,6.38
2023-02-03T22:58:36.757Z,6.28
2023-02-03T23:01:05.391Z,6.27
2023-02-03T23:03:34.078Z,6.32
2023-02-03T23:06:02.880Z,6.26
2023-02-03T23:08:32.732Z,6.21
2023-02-03T23:11:01.177Z,6.26
2023-02-03T23:13:29.620Z,6.20
2023-02-03T23:15:58.265Z,6.12
2023-02-03T23:18:26.717Z,6.17
2023-02-03T23:20:55.167Z,6.00
2023-02-03T23:23:23.777Z,5.94
2023-02-03T23:25:53.528Z,5.73
2023-02-03T23:28:21.944Z,5.74
2023-02-03T23:30:50.562Z,5.65
2023-02-03T23:33:19.075Z,5.54
2023-02-03T23:35:46.529Z,5.45
2023-02-03T23:38:16.032Z,5.40
2023-02-03T23:40:45.294Z,5.41
2023-02-03T23:43:15.854Z,5.20
2023-02-03T23:45:44.296Z,5.12
2023-02-03T23:48:13.194Z,5.17
2023-02-03T23:50:41.682Z,5.33
2023-02-03T23:53:10.650Z,5.23
2023-02-03T23:55:39.244Z,5.23
2023-02-03T23:58:07.653Z,5.39
